Terminal Aerodrome Forecast
Issued by NWS Pueblo, CO

Home | Current Version | Previous Version | Text Only | Print | Product List | Glossary On
Versions: 1 2 3 4 5 6 7 8 9 10 11 12 13 14 15 16 17 18 19 20 21 22 23 24 25 26 27 28 29 30 31 32
000
FTUS45 KPUB 252321
TAFALS
TAF
KALS 252321Z 2600/2624 19015G25KT P6SM VCTS SCT060CB BKN120
     FM260200 20010KT P6SM SCT080 BKN140
     FM260800 16008KT P6SM SCT100 BKN200
     FM261600 14007KT P6SM VCTS SCT060CB BKN120=

USA.gov is the U.S. government's official web portal to all federal, state and local government web resources and services.